sensor_id;sensor_type;location;lat;lon;timestamp;P1;durP1;ratioP1;P2;durP2;ratioP2
21239;SDS011;10778;48.962;9.018;2023-11-21T00:00:19;1.98;;;0.90;;
21239;SDS011;10778;48.962;9.018;2023-11-21T00:02:45;3.55;;;1.10;;
21239;SDS011;10778;48.962;9.018;2023-11-21T00:05:12;1.80;;;1.00;;
21239;SDS011;10778;48.962;9.018;2023-11-21T00:07:42;2.85;;;0.98;;
21239;SDS011;10778;48.962;9.018;2023-11-21T00:10:09;4.18;;;1.25;;
21239;SDS011;10778;48.962;9.018;2023-11-21T00:12:36;3.35;;;1.10;;
21239;SDS011;10778;48.962;9.018;2023-11-21T00:15:03;3.00;;;1.20;;
21239;SDS011;10778;48.962;9.018;2023-11-21T00:17:35;2.47;;;1.10;;
21239;SDS011;10778;48.962;9.018;2023-11-21T00:20:01;3.58;;;1.20;;
21239;SDS011;10778;48.962;9.018;2023-11-21T00:22:27;2.30;;;1.20;;
21239;SDS011;10778;48.962;9.018;2023-11-21T00:24:53;3.00;;;0.90;;
21239;SDS011;10778;48.962;9.018;2023-11-21T00:27:19;1.45;;;0.70;;
21239;SDS011;10778;48.962;9.018;2023-11-21T00:29:46;2.85;;;0.80;;
21239;SDS011;10778;48.962;9.018;2023-11-21T00:32:12;1.67;;;0.80;;
21239;SDS011;10778;48.962;9.018;2023-11-21T00:34:38;2.08;;;0.68;;
21239;SDS011;10778;48.962;9.018;2023-11-21T00:37:04;2.15;;;0.73;;
21239;SDS011;10778;48.962;9.018;2023-11-21T00:39:30;1.63;;;0.50;;
21239;SDS011;10778;48.962;9.018;2023-11-21T00:41:56;3.13;;;0.80;;
21239;SDS011;10778;48.962;9.018;2023-11-21T00:44:22;0.75;;;0.52;;
21239;SDS011;10778;48.962;9.018;2023-11-21T00:46:48;2.72;;;0.60;;
21239;SDS011;10778;48.962;9.018;2023-11-21T00:49:14;1.77;;;0.70;;
21239;SDS011;10778;48.962;9.018;2023-11-21T00:51:40;2.17;;;0.70;;
21239;SDS011;10778;48.962;9.018;2023-11-21T00:54:06;21.98;;;11.50;;
21239;SDS011;10778;48.962;9.018;2023-11-21T00:56:32;5.97;;;2.47;;
21239;SDS011;10778;48.962;9.018;2023-11-21T00:58:59;3.08;;;1.20;;
21239;SDS011;10778;48.962;9.018;2023-11-21T01:01:25;1.83;;;0.93;;
21239;SDS011;10778;48.962;9.018;2023-11-21T01:03:52;2.75;;;0.80;;
21239;SDS011;10778;48.962;9.018;2023-11-21T01:06:19;3.17;;;0.88;;
21239;SDS011;10778;48.962;9.018;2023-11-21T01:08:45;3.63;;;1.58;;
21239;SDS011;10778;48.962;9.018;2023-11-21T01:11:12;6.68;;;3.60;;
21239;SDS011;10778;48.962;9.018;2023-11-21T01:13:38;4.10;;;2.60;;
21239;SDS011;10778;48.962;9.018;2023-11-21T01:16:05;4.90;;;2.25;;
21239;SDS011;10778;48.962;9.018;2023-11-21T01:18:32;4.10;;;1.77;;
21239;SDS011;10778;48.962;9.018;2023-11-21T01:20:58;8.90;;;3.67;;
21239;SDS011;10778;48.962;9.018;2023-11-21T01:23:26;6.72;;;2.85;;
21239;SDS011;10778;48.962;9.018;2023-11-21T01:25:52;8.40;;;3.60;;
21239;SDS011;10778;48.962;9.018;2023-11-21T01:28:19;5.75;;;2.25;;
21239;SDS011;10778;48.962;9.018;2023-11-21T01:30:45;7.90;;;3.03;;
21239;SDS011;10778;48.962;9.018;2023-11-21T01:33:11;9.48;;;3.85;;
21239;SDS011;10778;48.962;9.018;2023-11-21T01:35:37;12.60;;;5.25;;
21239;SDS011;10778;48.962;9.018;2023-11-21T01:38:03;12.77;;;5.30;;
21239;SDS011;10778;48.962;9.018;2023-11-21T01:40:30;6.32;;;3.25;;
21239;SDS011;10778;48.962;9.018;2023-11-21T01:42:56;3.83;;;1.90;;
21239;SDS011;10778;48.962;9.018;2023-11-21T01:45:23;6.25;;;2.83;;
21239;SDS011;10778;48.962;9.018;2023-11-21T01:47:50;5.13;;;2.38;;
21239;SDS011;10778;48.962;9.018;2023-11-21T01:50:17;3.72;;;1.30;;
21239;SDS011;10778;48.962;9.018;2023-11-21T01:52:44;3.83;;;1.67;;
21239;SDS011;10778;48.962;9.018;2023-11-21T01:55:11;4.15;;;2.30;;
21239;SDS011;10778;48.962;9.018;2023-11-21T01:57:42;4.20;;;1.95;;
21239;SDS011;10778;48.962;9.018;2023-11-21T02:00:08;4.13;;;1.63;;
21239;SDS011;10778;48.962;9.018;2023-11-21T02:02:44;3.88;;;1.42;;
21239;SDS011;10778;48.962;9.018;2023-11-21T02:05:11;7.30;;;2.25;;
21239;SDS011;10778;48.962;9.018;2023-11-21T02:07:39;8.23;;;2.90;;
21239;SDS011;10778;48.962;9.018;2023-11-21T02:10:06;7.45;;;2.33;;
21239;SDS011;10778;48.962;9.018;2023-11-21T02:12:33;8.15;;;2.20;;
21239;SDS011;10778;48.962;9.018;2023-11-21T02:15:05;7.22;;;2.85;;
21239;SDS011;10778;48.962;9.018;2023-11-21T02:17:35;6.35;;;2.45;;
21239;SDS011;10778;48.962;9.018;2023-11-21T02:20:02;8.15;;;2.60;;
21239;SDS011;10778;48.962;9.018;2023-11-21T02:22:29;9.07;;;2.85;;
21239;SDS011;10778;48.962;9.018;2023-11-21T02:24:58;7.20;;;2.40;;
21239;SDS011;10778;48.962;9.018;2023-11-21T02:27:24;5.15;;;1.70;;
21239;SDS011;10778;48.962;9.018;2023-11-21T02:29:50;4.60;;;1.50;;
21239;SDS011;10778;48.962;9.018;2023-11-21T02:32:16;3.45;;;1.67;;
21239;SDS011;10778;48.962;9.018;2023-11-21T02:34:48;5.72;;;2.30;;
21239;SDS011;10778;48.962;9.018;2023-11-21T02:37:15;5.13;;;2.45;;
21239;SDS011;10778;48.962;9.018;2023-11-21T02:39:41;4.57;;;2.05;;
21239;SDS011;10778;48.962;9.018;2023-11-21T02:42:07;4.63;;;1.73;;
21239;SDS011;10778;48.962;9.018;2023-11-21T02:44:33;3.45;;;1.77;;
21239;SDS011;10778;48.962;9.018;2023-11-21T02:47:01;3.95;;;1.63;;
21239;SDS011;10778;48.962;9.018;2023-11-21T02:49:27;4.38;;;1.45;;
21239;SDS011;10778;48.962;9.018;2023-11-21T02:51:54;2.95;;;1.40;;
21239;SDS011;10778;48.962;9.018;2023-11-21T02:54:20;4.18;;;1.30;;
21239;SDS011;10778;48.962;9.018;2023-11-21T02:56:48;2.58;;;1.40;;
21239;SDS011;10778;48.962;9.018;2023-11-21T02:59:15;4.30;;;1.77;;
21239;SDS011;10778;48.962;9.018;2023-11-21T03:01:41;2.83;;;1.65;;
21239;SDS011;10778;48.962;9.018;2023-11-21T03:04:08;2.92;;;1.42;;
21239;SDS011;10778;48.962;9.018;2023-11-21T03:06:34;3.55;;;1.33;;
21239;SDS011;10778;48.962;9.018;2023-11-21T03:09:00;3.92;;;1.80;;
21239;SDS011;10778;48.962;9.018;2023-11-21T03:11:26;5.38;;;2.60;;
21239;SDS011;10778;48.962;9.018;2023-11-21T03:13:52;7.28;;;2.30;;
21239;SDS011;10778;48.962;9.018;2023-11-21T03:16:18;4.03;;;1.92;;
21239;SDS011;10778;48.962;9.018;2023-11-21T03:18:45;3.60;;;1.70;;
21239;SDS011;10778;48.962;9.018;2023-11-21T03:21:12;3.47;;;1.70;;
21239;SDS011;10778;48.962;9.018;2023-11-21T03:23:38;3.78;;;1.60;;
21239;SDS011;10778;48.962;9.018;2023-11-21T03:26:05;2.17;;;0.90;;
21239;SDS011;10778;48.962;9.018;2023-11-21T03:28:35;3.15;;;1.20;;
21239;SDS011;10778;48.962;9.018;2023-11-21T03:31:02;3.20;;;1.10;;
21239;SDS011;10778;48.962;9.018;2023-11-21T03:33:29;2.10;;;1.00;;
21239;SDS011;10778;48.962;9.018;2023-11-21T03:35:56;2.05;;;1.00;;
21239;SDS011;10778;48.962;9.018;2023-11-21T03:38:22;1.25;;;0.90;;
21239;SDS011;10778;48.962;9.018;2023-11-21T03:40:48;1.80;;;0.90;;
21239;SDS011;10778;48.962;9.018;2023-11-21T03:43:14;1.65;;;1.00;;
21239;SDS011;10778;48.962;9.018;2023-11-21T03:45:40;2.28;;;1.20;;
21239;SDS011;10778;48.962;9.018;2023-11-21T03:48:06;5.85;;;1.48;;
21239;SDS011;10778;48.962;9.018;2023-11-21T03:50:32;5.10;;;1.80;;
21239;SDS011;10778;48.962;9.018;2023-11-21T03:52:59;3.75;;;1.73;;
21239;SDS011;10778;48.962;9.018;2023-11-21T03:55:25;4.97;;;2.17;;
21239;SDS011;10778;48.962;9.018;2023-11-21T03:57:51;5.28;;;2.70;;
21239;SDS011;10778;48.962;9.018;2023-11-21T04:00:19;4.35;;;2.45;;
21239;SDS011;10778;48.962;9.018;2023-11-21T04:02:48;3.40;;;2.45;;
21239;SDS011;10778;48.962;9.018;2023-11-21T04:05:14;4.50;;;2.75;;
21239;SDS011;10778;48.962;9.018;2023-11-21T04:07:40;4.88;;;2.53;;
21239;SDS011;10778;48.962;9.018;2023-11-21T04:10:06;4.25;;;2.45;;
21239;SDS011;10778;48.962;9.018;2023-11-21T04:12:35;5.20;;;2.90;;
21239;SDS011;10778;48.962;9.018;2023-11-21T04:15:01;6.47;;;3.78;;
21239;SDS011;10778;48.962;9.018;2023-11-21T04:17:27;5.50;;;2.40;;
21239;SDS011;10778;48.962;9.018;2023-11-21T04:19:53;3.90;;;1.73;;
21239;SDS011;10778;48.962;9.018;2023-11-21T04:22:19;4.68;;;2.17;;
21239;SDS011;10778;48.962;9.018;2023-11-21T04:24:45;5.13;;;2.25;;
21239;SDS011;10778;48.962;9.018;2023-11-21T04:27:11;4.32;;;3.10;;
21239;SDS011;10778;48.962;9.018;2023-11-21T04:29:38;4.47;;;2.45;;
21239;SDS011;10778;48.962;9.018;2023-11-21T04:32:04;5.95;;;2.90;;
21239;SDS011;10778;48.962;9.018;2023-11-21T04:34:31;5.93;;;2.78;;
21239;SDS011;10778;48.962;9.018;2023-11-21T04:36:57;4.25;;;2.30;;
21239;SDS011;10778;48.962;9.018;2023-11-21T04:39:23;4.03;;;1.80;;
21239;SDS011;10778;48.962;9.018;2023-11-21T04:41:50;3.28;;;1.80;;
21239;SDS011;10778;48.962;9.018;2023-11-21T04:44:16;2.78;;;1.60;;
21239;SDS011;10778;48.962;9.018;2023-11-21T04:46:42;2.80;;;1.88;;
21239;SDS011;10778;48.962;9.018;2023-11-21T04:49:08;3.97;;;1.55;;
21239;SDS011;10778;48.962;9.018;2023-11-21T04:51:34;3.50;;;1.40;;
21239;SDS011;10778;48.962;9.018;2023-11-21T04:54:01;2.70;;;1.10;;
21239;SDS011;10778;48.962;9.018;2023-11-21T04:56:27;2.95;;;1.30;;
21239;SDS011;10778;48.962;9.018;2023-11-21T04:58:54;1.92;;;1.10;;
21239;SDS011;10778;48.962;9.018;2023-11-21T05:01:20;1.65;;;1.02;;
21239;SDS011;10778;48.962;9.018;2023-11-21T05:03:46;3.20;;;1.20;;
21239;SDS011;10778;48.962;9.018;2023-11-21T05:06:13;1.98;;;1.00;;
21239;SDS011;10778;48.962;9.018;2023-11-21T05:08:40;2.20;;;0.95;;
21239;SDS011;10778;48.962;9.018;2023-11-21T05:11:06;3.63;;;1.13;;
21239;SDS011;10778;48.962;9.018;2023-11-21T05:13:36;3.38;;;0.95;;
21239;SDS011;10778;48.962;9.018;2023-11-21T05:16:02;4.35;;;1.02;;
21239;SDS011;10778;48.962;9.018;2023-11-21T05:18:33;3.90;;;1.27;;
21239;SDS011;10778;48.962;9.018;2023-11-21T05:21:00;2.40;;;1.00;;
21239;SDS011;10778;48.962;9.018;2023-11-21T05:23:26;4.78;;;2.15;;
21239;SDS011;10778;48.962;9.018;2023-11-21T05:25:52;7.35;;;2.42;;
21239;SDS011;10778;48.962;9.018;2023-11-21T05:28:18;4.50;;;1.70;;
21239;SDS011;10778;48.962;9.018;2023-11-21T05:30:44;3.70;;;1.48;;
21239;SDS011;10778;48.962;9.018;2023-11-21T05:33:10;3.38;;;1.40;;
21239;SDS011;10778;48.962;9.018;2023-11-21T05:35:36;3.05;;;1.00;;
21239;SDS011;10778;48.962;9.018;2023-11-21T05:38:02;2.72;;;1.08;;
21239;SDS011;10778;48.962;9.018;2023-11-21T05:40:28;2.08;;;0.90;;
21239;SDS011;10778;48.962;9.018;2023-11-21T05:42:55;2.83;;;1.00;;
21239;SDS011;10778;48.962;9.018;2023-11-21T05:45:21;2.22;;;1.00;;
21239;SDS011;10778;48.962;9.018;2023-11-21T05:47:47;1.50;;;0.90;;
21239;SDS011;10778;48.962;9.018;2023-11-21T05:50:14;3.15;;;1.00;;
21239;SDS011;10778;48.962;9.018;2023-11-21T05:52:42;2.08;;;1.10;;
21239;SDS011;10778;48.962;9.018;2023-11-21T05:55:11;3.15;;;1.25;;
21239;SDS011;10778;48.962;9.018;2023-11-21T05:57:39;3.03;;;1.35;;
21239;SDS011;10778;48.962;9.018;2023-11-21T06:00:09;2.75;;;1.30;;
21239;SDS011;10778;48.962;9.018;2023-11-21T06:02:37;4.35;;;1.25;;
21239;SDS011;10778;48.962;9.018;2023-11-21T06:05:04;2.40;;;1.40;;
21239;SDS011;10778;48.962;9.018;2023-11-21T06:07:31;2.63;;;1.25;;
21239;SDS011;10778;48.962;9.018;2023-11-21T06:09:58;3.78;;;1.25;;
21239;SDS011;10778;48.962;9.018;2023-11-21T06:12:24;3.70;;;1.20;;
21239;SDS011;10778;48.962;9.018;2023-11-21T06:14:50;1.77;;;1.00;;
21239;SDS011;10778;48.962;9.018;2023-11-21T06:17:17;2.88;;;1.08;;
21239;SDS011;10778;48.962;9.018;2023-11-21T06:19:44;2.90;;;1.30;;
21239;SDS011;10778;48.962;9.018;2023-11-21T06:22:11;2.88;;;1.20;;
21239;SDS011;10778;48.962;9.018;2023-11-21T06:24:37;1.70;;;0.93;;
21239;SDS011;10778;48.962;9.018;2023-11-21T06:27:04;2.53;;;1.17;;
21239;SDS011;10778;48.962;9.018;2023-11-21T06:29:30;3.53;;;1.40;;
21239;SDS011;10778;48.962;9.018;2023-11-21T06:31:57;2.33;;;1.00;;
21239;SDS011;10778;48.962;9.018;2023-11-21T06:34:24;2.65;;;1.23;;
21239;SDS011;10778;48.962;9.018;2023-11-21T06:36:50;2.67;;;1.00;;
21239;SDS011;10778;48.962;9.018;2023-11-21T06:39:17;4.35;;;0.90;;
21239;SDS011;10778;48.962;9.018;2023-11-21T06:41:43;3.22;;;1.10;;
21239;SDS011;10778;48.962;9.018;2023-11-21T06:44:09;3.45;;;1.60;;
21239;SDS011;10778;48.962;9.018;2023-11-21T06:46:35;3.70;;;1.95;;
21239;SDS011;10778;48.962;9.018;2023-11-21T06:49:01;3.97;;;2.03;;
21239;SDS011;10778;48.962;9.018;2023-11-21T06:51:27;2.97;;;1.77;;
21239;SDS011;10778;48.962;9.018;2023-11-21T06:53:53;3.00;;;1.92;;
21239;SDS011;10778;48.962;9.018;2023-11-21T06:56:19;3.17;;;1.80;;
21239;SDS011;10778;48.962;9.018;2023-11-21T06:58:45;3.88;;;1.30;;
21239;SDS011;10778;48.962;9.018;2023-11-21T07:01:12;2.97;;;1.50;;
21239;SDS011;10778;48.962;9.018;2023-11-21T07:03:39;1.92;;;1.20;;
21239;SDS011;10778;48.962;9.018;2023-11-21T07:06:05;2.70;;;1.25;;
21239;SDS011;10778;48.962;9.018;2023-11-21T07:08:31;3.97;;;1.40;;
21239;SDS011;10778;48.962;9.018;2023-11-21T07:10:57;2.70;;;1.40;;
21239;SDS011;10778;48.962;9.018;2023-11-21T07:13:23;4.25;;;1.58;;
21239;SDS011;10778;48.962;9.018;2023-11-21T07:15:49;2.90;;;1.73;;
21239;SDS011;10778;48.962;9.018;2023-11-21T07:18:15;4.40;;;2.20;;
21239;SDS011;10778;48.962;9.018;2023-11-21T07:20:41;3.60;;;1.85;;
21239;SDS011;10778;48.962;9.018;2023-11-21T07:23:07;5.53;;;2.28;;
21239;SDS011;10778;48.962;9.018;2023-11-21T07:25:33;5.40;;;2.38;;
21239;SDS011;10778;48.962;9.018;2023-11-21T07:27:59;4.50;;;2.60;;
21239;SDS011;10778;48.962;9.018;2023-11-21T07:30:26;5.55;;;3.00;;
21239;SDS011;10778;48.962;9.018;2023-11-21T07:32:52;4.40;;;2.72;;
21239;SDS011;10778;48.962;9.018;2023-11-21T07:35:19;5.50;;;3.03;;
21239;SDS011;10778;48.962;9.018;2023-11-21T07:37:45;5.30;;;2.97;;
21239;SDS011;10778;48.962;9.018;2023-11-21T07:40:12;4.43;;;2.67;;
21239;SDS011;10778;48.962;9.018;2023-11-21T07:42:39;4.45;;;3.00;;
21239;SDS011;10778;48.962;9.018;2023-11-21T07:45:05;7.70;;;3.30;;
21239;SDS011;10778;48.962;9.018;2023-11-21T07:47:32;5.40;;;2.95;;
21239;SDS011;10778;48.962;9.018;2023-11-21T07:50:03;5.63;;;2.70;;
21239;SDS011;10778;48.962;9.018;2023-11-21T07:52:29;2.80;;;2.20;;
21239;SDS011;10778;48.962;9.018;2023-11-21T07:54:55;4.22;;;2.85;;
21239;SDS011;10778;48.962;9.018;2023-11-21T07:57:21;6.10;;;3.08;;
21239;SDS011;10778;48.962;9.018;2023-11-21T07:59:47;4.90;;;2.80;;
21239;SDS011;10778;48.962;9.018;2023-11-21T08:02:13;6.68;;;2.70;;
21239;SDS011;10778;48.962;9.018;2023-11-21T08:04:41;4.63;;;2.85;;
21239;SDS011;10778;48.962;9.018;2023-11-21T08:07:07;7.07;;;2.70;;
21239;SDS011;10778;48.962;9.018;2023-11-21T08:09:34;4.57;;;2.95;;
21239;SDS011;10778;48.962;9.018;2023-11-21T08:12:00;4.85;;;3.40;;
21239;SDS011;10778;48.962;9.018;2023-11-21T08:14:28;6.03;;;3.90;;
21239;SDS011;10778;48.962;9.018;2023-11-21T08:16:54;8.35;;;4.45;;
21239;SDS011;10778;48.962;9.018;2023-11-21T08:19:23;5.32;;;3.30;;
21239;SDS011;10778;48.962;9.018;2023-11-21T08:21:50;5.35;;;3.45;;
21239;SDS011;10778;48.962;9.018;2023-11-21T08:24:20;7.05;;;3.28;;
21239;SDS011;10778;48.962;9.018;2023-11-21T08:26:47;8.27;;;3.30;;
21239;SDS011;10778;48.962;9.018;2023-11-21T08:29:13;5.45;;;3.00;;
21239;SDS011;10778;48.962;9.018;2023-11-21T08:31:39;6.95;;;3.05;;
21239;SDS011;10778;48.962;9.018;2023-11-21T08:34:06;6.20;;;3.13;;
21239;SDS011;10778;48.962;9.018;2023-11-21T08:36:32;4.78;;;3.00;;
21239;SDS011;10778;48.962;9.018;2023-11-21T08:38:58;6.20;;;2.78;;
21239;SDS011;10778;48.962;9.018;2023-11-21T08:41:24;4.43;;;2.72;;
21239;SDS011;10778;48.962;9.018;2023-11-21T08:43:50;5.03;;;2.80;;
21239;SDS011;10778;48.962;9.018;2023-11-21T08:46:17;5.90;;;2.63;;
21239;SDS011;10778;48.962;9.018;2023-11-21T08:48:43;5.30;;;2.65;;
21239;SDS011;10778;48.962;9.018;2023-11-21T08:51:10;3.70;;;2.30;;
21239;SDS011;10778;48.962;9.018;2023-11-21T08:53:37;4.82;;;2.60;;
21239;SDS011;10778;48.962;9.018;2023-11-21T08:56:04;4.68;;;2.90;;
21239;SDS011;10778;48.962;9.018;2023-11-21T08:58:30;3.97;;;2.67;;
21239;SDS011;10778;48.962;9.018;2023-11-21T09:00:57;3.90;;;2.47;;
21239;SDS011;10778;48.962;9.018;2023-11-21T09:03:24;4.15;;;2.30;;
21239;SDS011;10778;48.962;9.018;2023-11-21T09:05:50;5.55;;;2.95;;
21239;SDS011;10778;48.962;9.018;2023-11-21T09:08:16;4.32;;;2.80;;
21239;SDS011;10778;48.962;9.018;2023-11-21T09:10:42;4.35;;;2.67;;
21239;SDS011;10778;48.962;9.018;2023-11-21T09:13:10;3.67;;;2.60;;
21239;SDS011;10778;48.962;9.018;2023-11-21T09:15:38;4.88;;;2.95;;
21239;SDS011;10778;48.962;9.018;2023-11-21T09:18:04;5.63;;;3.17;;
21239;SDS011;10778;48.962;9.018;2023-11-21T09:20:30;4.03;;;3.20;;
21239;SDS011;10778;48.962;9.018;2023-11-21T09:22:56;3.08;;;2.42;;
21239;SDS011;10778;48.962;9.018;2023-11-21T09:25:22;4.20;;;2.70;;
21239;SDS011;10778;48.962;9.018;2023-11-21T09:27:48;3.65;;;3.00;;
21239;SDS011;10778;48.962;9.018;2023-11-21T09:30:15;3.67;;;2.80;;
21239;SDS011;10778;48.962;9.018;2023-11-21T09:32:42;6.20;;;3.53;;
21239;SDS011;10778;48.962;9.018;2023-11-21T09:35:11;4.75;;;3.00;;
21239;SDS011;10778;48.962;9.018;2023-11-21T09:37:37;4.45;;;3.10;;
21239;SDS011;10778;48.962;9.018;2023-11-21T09:40:13;3.72;;;2.70;;
21239;SDS011;10778;48.962;9.018;2023-11-21T09:42:49;4.30;;;2.67;;
21239;SDS011;10778;48.962;9.018;2023-11-21T09:45:29;4.13;;;2.42;;
21239;SDS011;10778;48.962;9.018;2023-11-21T09:48:03;4.20;;;2.35;;
21239;SDS011;10778;48.962;9.018;2023-11-21T09:50:41;2.80;;;2.42;;
21239;SDS011;10778;48.962;9.018;2023-11-21T09:53:21;3.33;;;2.30;;
21239;SDS011;10778;48.962;9.018;2023-11-21T09:55:50;3.40;;;2.40;;
21239;SDS011;10778;48.962;9.018;2023-11-21T09:58:24;2.97;;;2.17;;
21239;SDS011;10778;48.962;9.018;2023-11-21T10:00:58;4.43;;;2.40;;
21239;SDS011;10778;48.962;9.018;2023-11-21T10:03:31;2.60;;;2.00;;
21239;SDS011;10778;48.962;9.018;2023-11-21T10:06:01;2.55;;;1.98;;
21239;SDS011;10778;48.962;9.018;2023-11-21T10:08:34;3.92;;;2.67;;
21239;SDS011;10778;48.962;9.018;2023-11-21T10:11:07;3.33;;;2.40;;
21239;SDS011;10778;48.962;9.018;2023-11-21T10:13:40;2.58;;;2.35;;
21239;SDS011;10778;48.962;9.018;2023-11-21T10:16:15;4.45;;;2.67;;
21239;SDS011;10778;48.962;9.018;2023-11-21T10:18:52;4.28;;;2.90;;
21239;SDS011;10778;48.962;9.018;2023-11-21T10:21:22;3.65;;;2.72;;
21239;SDS011;10778;48.962;9.018;2023-11-21T10:23:54;4.65;;;2.58;;
21239;SDS011;10778;48.962;9.018;2023-11-21T10:26:21;3.08;;;2.60;;
21239;SDS011;10778;48.962;9.018;2023-11-21T10:29:04;2.28;;;2.08;;
21239;SDS011;10778;48.962;9.018;2023-11-21T10:31:45;2.90;;;2.10;;
21239;SDS011;10778;48.962;9.018;2023-11-21T10:34:14;3.08;;;2.00;;
21239;SDS011;10778;48.962;9.018;2023-11-21T10:36:42;2.70;;;2.20;;
21239;SDS011;10778;48.962;9.018;2023-11-21T10:39:08;3.45;;;1.95;;
21239;SDS011;10778;48.962;9.018;2023-11-21T10:41:35;2.88;;;2.00;;
21239;SDS011;10778;48.962;9.018;2023-11-21T10:44:02;2.97;;;2.08;;
21239;SDS011;10778;48.962;9.018;2023-11-21T10:46:35;3.80;;;3.00;;
21239;SDS011;10778;48.962;9.018;2023-11-21T10:49:01;2.67;;;2.47;;
21239;SDS011;10778;48.962;9.018;2023-11-21T10:51:27;2.28;;;2.00;;
21239;SDS011;10778;48.962;9.018;2023-11-21T10:53:54;2.10;;;1.73;;
21239;SDS011;10778;48.962;9.018;2023-11-21T10:56:20;3.20;;;1.50;;
21239;SDS011;10778;48.962;9.018;2023-11-21T10:58:49;1.60;;;1.40;;
21239;SDS011;10778;48.962;9.018;2023-11-21T11:01:18;1.80;;;1.70;;
21239;SDS011;10778;48.962;9.018;2023-11-21T11:03:44;2.70;;;2.15;;
21239;SDS011;10778;48.962;9.018;2023-11-21T11:06:11;3.08;;;1.90;;
21239;SDS011;10778;48.962;9.018;2023-11-21T11:08:38;3.80;;;2.20;;
21239;SDS011;10778;48.962;9.018;2023-11-21T11:11:05;2.25;;;2.00;;
21239;SDS011;10778;48.962;9.018;2023-11-21T11:13:32;1.98;;;1.77;;
21239;SDS011;10778;48.962;9.018;2023-11-21T11:15:58;2.20;;;2.00;;
21239;SDS011;10778;48.962;9.018;2023-11-21T11:18:29;1.73;;;1.63;;
21239;SDS011;10778;48.962;9.018;2023-11-21T11:21:11;2.15;;;1.90;;
21239;SDS011;10778;48.962;9.018;2023-11-21T11:23:52;1.90;;;1.70;;
21239;SDS011;10778;48.962;9.018;2023-11-21T11:26:39;2.88;;;2.55;;
21239;SDS011;10778;48.962;9.018;2023-11-21T11:29:31;2.70;;;2.20;;
21239;SDS011;10778;48.962;9.018;2023-11-21T11:34:44;1.95;;;1.80;;
21239;SDS011;10778;48.962;9.018;2023-11-21T11:37:15;2.63;;;1.50;;
21239;SDS011;10778;48.962;9.018;2023-11-21T11:39:42;3.15;;;2.45;;
21239;SDS011;10778;48.962;9.018;2023-11-21T11:42:12;1.77;;;1.67;;
21239;SDS011;10778;48.962;9.018;2023-11-21T11:47:27;1.63;;;1.40;;
21239;SDS011;10778;48.962;9.018;2023-11-21T11:50:03;2.38;;;1.80;;
21239;SDS011;10778;48.962;9.018;2023-11-21T11:52:46;2.40;;;2.20;;
21239;SDS011;10778;48.962;9.018;2023-11-21T11:55:18;3.83;;;2.10;;
21239;SDS011;10778;48.962;9.018;2023-11-21T11:57:51;2.22;;;1.40;;
21239;SDS011;10778;48.962;9.018;2023-11-21T12:00:18;1.98;;;1.50;;
21239;SDS011;10778;48.962;9.018;2023-11-21T12:02:48;2.65;;;1.90;;
21239;SDS011;10778;48.962;9.018;2023-11-21T12:05:16;2.13;;;1.70;;
21239;SDS011;10778;48.962;9.018;2023-11-21T12:07:46;2.10;;;1.90;;
21239;SDS011;10778;48.962;9.018;2023-11-21T12:10:15;2.90;;;1.95;;
21239;SDS011;10778;48.962;9.018;2023-11-21T12:12:44;2.30;;;2.10;;
21239;SDS011;10778;48.962;9.018;2023-11-21T12:15:12;2.63;;;2.10;;
21239;SDS011;10778;48.962;9.018;2023-11-21T12:17:39;3.17;;;2.15;;
21239;SDS011;10778;48.962;9.018;2023-11-21T12:20:07;2.65;;;1.70;;
21239;SDS011;10778;48.962;9.018;2023-11-21T12:22:41;2.60;;;1.55;;
21239;SDS011;10778;48.962;9.018;2023-11-21T12:25:08;3.20;;;1.20;;
21239;SDS011;10778;48.962;9.018;2023-11-21T12:27:34;1.05;;;1.00;;
21239;SDS011;10778;48.962;9.018;2023-11-21T12:30:00;1.10;;;1.00;;
21239;SDS011;10778;48.962;9.018;2023-11-21T12:32:26;1.20;;;0.90;;
21239;SDS011;10778;48.962;9.018;2023-11-21T12:34:52;0.95;;;0.70;;
21239;SDS011;10778;48.962;9.018;2023-11-21T12:37:18;1.10;;;1.00;;
21239;SDS011;10778;48.962;9.018;2023-11-21T12:39:44;1.13;;;0.85;;
21239;SDS011;10778;48.962;9.018;2023-11-21T12:42:10;1.95;;;0.60;;
21239;SDS011;10778;48.962;9.018;2023-11-21T12:44:36;0.65;;;0.60;;
21239;SDS011;10778;48.962;9.018;2023-11-21T12:47:06;1.65;;;0.85;;
21239;SDS011;10778;48.962;9.018;2023-11-21T12:49:33;2.47;;;0.60;;
21239;SDS011;10778;48.962;9.018;2023-11-21T12:51:59;0.80;;;0.50;;
21239;SDS011;10778;48.962;9.018;2023-11-21T12:54:25;1.27;;;0.70;;
21239;SDS011;10778;48.962;9.018;2023-11-21T12:56:51;2.03;;;0.68;;
21239;SDS011;10778;48.962;9.018;2023-11-21T12:59:17;1.65;;;0.70;;
21239;SDS011;10778;48.962;9.018;2023-11-21T13:01:46;0.80;;;0.60;;
21239;SDS011;10778;48.962;9.018;2023-11-21T13:04:12;1.38;;;0.65;;
21239;SDS011;10778;48.962;9.018;2023-11-21T13:06:38;1.60;;;0.57;;
21239;SDS011;10778;48.962;9.018;2023-11-21T13:09:07;0.93;;;0.60;;
21239;SDS011;10778;48.962;9.018;2023-11-21T13:11:37;0.88;;;0.60;;
21239;SDS011;10778;48.962;9.018;2023-11-21T13:14:06;1.27;;;0.60;;
21239;SDS011;10778;48.962;9.018;2023-11-21T13:16:32;1.35;;;0.80;;
21239;SDS011;10778;48.962;9.018;2023-11-21T13:18:58;0.70;;;0.63;;
21239;SDS011;10778;48.962;9.018;2023-11-21T13:21:24;0.77;;;0.60;;
21239;SDS011;10778;48.962;9.018;2023-11-21T13:23:50;1.20;;;0.80;;
21239;SDS011;10778;48.962;9.018;2023-11-21T13:26:18;1.40;;;0.80;;
21239;SDS011;10778;48.962;9.018;2023-11-21T13:28:46;2.58;;;0.70;;
21239;SDS011;10778;48.962;9.018;2023-11-21T13:31:12;1.67;;;0.65;;
21239;SDS011;10778;48.962;9.018;2023-11-21T13:33:52;1.25;;;0.80;;
21239;SDS011;10778;48.962;9.018;2023-11-21T13:36:22;0.80;;;0.70;;
21239;SDS011;10778;48.962;9.018;2023-11-21T13:38:49;1.65;;;0.80;;
21239;SDS011;10778;48.962;9.018;2023-11-21T13:41:15;0.88;;;0.70;;
21239;SDS011;10778;48.962;9.018;2023-11-21T13:43:43;2.15;;;0.80;;
21239;SDS011;10778;48.962;9.018;2023-11-21T13:46:19;1.00;;;0.60;;
21239;SDS011;10778;48.962;9.018;2023-11-21T13:48:48;1.33;;;0.80;;
21239;SDS011;10778;48.962;9.018;2023-11-21T13:51:21;1.13;;;0.80;;
21239;SDS011;10778;48.962;9.018;2023-11-21T13:53:56;3.00;;;1.30;;
21239;SDS011;10778;48.962;9.018;2023-11-21T13:56:22;3.45;;;1.48;;
21239;SDS011;10778;48.962;9.018;2023-11-21T13:58:50;1.20;;;1.08;;
21239;SDS011;10778;48.962;9.018;2023-11-21T14:01:20;1.75;;;1.20;;
21239;SDS011;10778;48.962;9.018;2023-11-21T14:03:49;1.00;;;0.90;;
21239;SDS011;10778;48.962;9.018;2023-11-21T14:06:22;2.78;;;1.02;;
21239;SDS011;10778;48.962;9.018;2023-11-21T14:08:58;1.63;;;1.42;;
21239;SDS011;10778;48.962;9.018;2023-11-21T14:11:24;2.03;;;1.40;;
21239;SDS011;10778;48.962;9.018;2023-11-21T14:13:51;2.33;;;1.50;;
21239;SDS011;10778;48.962;9.018;2023-11-21T14:16:17;2.80;;;1.70;;
21239;SDS011;10778;48.962;9.018;2023-11-21T14:18:43;2.25;;;1.50;;
21239;SDS011;10778;48.962;9.018;2023-11-21T14:21:21;3.42;;;1.70;;
21239;SDS011;10778;48.962;9.018;2023-11-21T14:23:47;3.05;;;1.77;;
21239;SDS011;10778;48.962;9.018;2023-11-21T14:26:14;2.17;;;1.98;;
21239;SDS011;10778;48.962;9.018;2023-11-21T14:28:41;2.78;;;2.00;;
21239;SDS011;10778;48.962;9.018;2023-11-21T14:31:08;3.15;;;2.35;;
21239;SDS011;10778;48.962;9.018;2023-11-21T14:33:39;2.67;;;2.22;;
21239;SDS011;10778;48.962;9.018;2023-11-21T14:36:06;3.67;;;2.55;;
21239;SDS011;10778;48.962;9.018;2023-11-21T14:38:36;4.00;;;3.10;;
21239;SDS011;10778;48.962;9.018;2023-11-21T14:41:05;5.60;;;3.13;;
21239;SDS011;10778;48.962;9.018;2023-11-21T14:43:34;5.05;;;3.15;;
21239;SDS011;10778;48.962;9.018;2023-11-21T14:46:01;5.40;;;2.97;;
21239;SDS011;10778;48.962;9.018;2023-11-21T14:48:38;5.28;;;3.97;;
21239;SDS011;10778;48.962;9.018;2023-11-21T14:51:13;7.18;;;4.00;;
21239;SDS011;10778;48.962;9.018;2023-11-21T14:53:56;7.00;;;4.55;;
21239;SDS011;10778;48.962;9.018;2023-11-21T14:56:34;6.53;;;4.03;;